sensor_id;sensor_type;location;lat;lon;timestamp;temperature;humidity
35635;DHT22;21757;43.610;1.440;2023-06-26T00:00:19;23.20;1.00
35635;DHT22;21757;43.610;1.440;2023-06-26T00:02:45;23.30;1.00
35635;DHT22;21757;43.610;1.440;2023-06-26T00:05:11;23.20;1.00
35635;DHT22;21757;43.610;1.440;2023-06-26T00:07:37;23.10;1.00
35635;DHT22;21757;43.610;1.440;2023-06-26T00:10:03;23.20;1.00
35635;DHT22;21757;43.610;1.440;2023-06-26T00:12:30;23.10;1.00
35635;DHT22;21757;43.610;1.440;2023-06-26T00:14:56;23.10;1.00
35635;DHT22;21757;43.610;1.440;2023-06-26T00:17:22;23.10;1.00
35635;DHT22;21757;43.610;1.440;2023-06-26T00:19:48;23.00;1.00
35635;DHT22;21757;43.610;1.440;2023-06-26T00:22:14;23.10;1.00
35635;DHT22;21757;43.610;1.440;2023-06-26T00:24:40;22.90;1.00
35635;DHT22;21757;43.610;1.440;2023-06-26T00:27:05;22.90;1.00
35635;DHT22;21757;43.610;1.440;2023-06-26T00:29:31;22.90;1.00
35635;DHT22;21757;43.610;1.440;2023-06-26T00:31:57;22.80;1.00
35635;DHT22;21757;43.610;1.440;2023-06-26T00:34:22;22.80;1.00
35635;DHT22;21757;43.610;1.440;2023-06-26T00:36:48;23.00;1.00
35635;DHT22;21757;43.610;1.440;2023-06-26T00:39:14;23.00;1.00
35635;DHT22;21757;43.610;1.440;2023-06-26T00:41:40;22.90;1.00
35635;DHT22;21757;43.610;1.440;2023-06-26T00:44:06;22.90;1.00
35635;DHT22;21757;43.610;1.440;2023-06-26T00:46:32;22.90;1.00
35635;DHT22;21757;43.610;1.440;2023-06-26T00:49:03;22.90;1.00
35635;DHT22;21757;43.610;1.440;2023-06-26T00:51:30;23.00;1.00
35635;DHT22;21757;43.610;1.440;2023-06-26T00:53:56;22.90;1.00
35635;DHT22;21757;43.610;1.440;2023-06-26T00:56:23;22.90;1.00
35635;DHT22;21757;43.610;1.440;2023-06-26T00:58:49;22.90;1.00
35635;DHT22;21757;43.610;1.440;2023-06-26T01:01:15;22.90;1.00
35635;DHT22;21757;43.610;1.440;2023-06-26T01:03:49;22.90;1.00
35635;DHT22;21757;43.610;1.440;2023-06-26T01:06:22;23.00;1.00
35635;DHT22;21757;43.610;1.440;2023-06-26T01:08:49;22.90;1.00
35635;DHT22;21757;43.610;1.440;2023-06-26T01:11:15;22.90;1.00
35635;DHT22;21757;43.610;1.440;2023-06-26T01:13:42;22.80;1.00
35635;DHT22;21757;43.610;1.440;2023-06-26T01:16:10;22.80;1.00
35635;DHT22;21757;43.610;1.440;2023-06-26T01:18:37;22.90;1.00
35635;DHT22;21757;43.610;1.440;2023-06-26T01:21:09;22.70;1.00
35635;DHT22;21757;43.610;1.440;2023-06-26T01:26:23;22.90;1.00
35635;DHT22;21757;43.610;1.440;2023-06-26T01:28:53;22.80;1.00
35635;DHT22;21757;43.610;1.440;2023-06-26T01:31:19;22.80;1.00
35635;DHT22;21757;43.610;1.440;2023-06-26T01:33:45;22.80;1.00
35635;DHT22;21757;43.610;1.440;2023-06-26T01:36:11;22.70;1.00
35635;DHT22;21757;43.610;1.440;2023-06-26T01:38:37;22.60;1.00
35635;DHT22;21757;43.610;1.440;2023-06-26T01:41:04;22.70;1.00
35635;DHT22;21757;43.610;1.440;2023-06-26T01:54:37;22.70;1.00
35635;DHT22;21757;43.610;1.440;2023-06-26T01:57:04;22.70;1.00
35635;DHT22;21757;43.610;1.440;2023-06-26T01:59:32;22.60;1.00
35635;DHT22;21757;43.610;1.440;2023-06-26T02:01:58;22.70;1.00
35635;DHT22;21757;43.610;1.440;2023-06-26T02:04:25;22.70;1.00
35635;DHT22;21757;43.610;1.440;2023-06-26T02:06:51;22.70;1.00
35635;DHT22;21757;43.610;1.440;2023-06-26T02:09:17;22.70;1.00
35635;DHT22;21757;43.610;1.440;2023-06-26T02:11:43;22.70;1.00
35635;DHT22;21757;43.610;1.440;2023-06-26T02:14:08;22.70;1.00
35635;DHT22;21757;43.610;1.440;2023-06-26T02:16:35;22.70;1.00
35635;DHT22;21757;43.610;1.440;2023-06-26T02:19:01;22.70;1.00
35635;DHT22;21757;43.610;1.440;2023-06-26T02:21:26;22.60;1.00
35635;DHT22;21757;43.610;1.440;2023-06-26T02:23:52;22.70;1.00
35635;DHT22;21757;43.610;1.440;2023-06-26T02:26:18;22.60;1.00
35635;DHT22;21757;43.610;1.440;2023-06-26T02:28:44;22.90;1.00
35635;DHT22;21757;43.610;1.440;2023-06-26T02:31:09;22.90;1.00
35635;DHT22;21757;43.610;1.440;2023-06-26T02:33:35;22.80;1.00
35635;DHT22;21757;43.610;1.440;2023-06-26T02:36:00;22.70;1.00
35635;DHT22;21757;43.610;1.440;2023-06-26T02:38:26;22.70;1.00
35635;DHT22;21757;43.610;1.440;2023-06-26T02:40:52;22.70;1.00
35635;DHT22;21757;43.610;1.440;2023-06-26T02:43:17;22.70;1.00
35635;DHT22;21757;43.610;1.440;2023-06-26T02:45:43;22.70;1.00
35635;DHT22;21757;43.610;1.440;2023-06-26T02:48:09;22.60;1.00
35635;DHT22;21757;43.610;1.440;2023-06-26T02:50:34;22.70;1.00
35635;DHT22;21757;43.610;1.440;2023-06-26T02:53:00;22.70;1.00
35635;DHT22;21757;43.610;1.440;2023-06-26T02:55:26;22.50;1.00
35635;DHT22;21757;43.610;1.440;2023-06-26T02:57:52;22.50;1.00
35635;DHT22;21757;43.610;1.440;2023-06-26T03:00:18;22.50;1.00
35635;DHT22;21757;43.610;1.440;2023-06-26T03:02:43;22.60;1.00
35635;DHT22;21757;43.610;1.440;2023-06-26T03:05:09;22.60;1.00
35635;DHT22;21757;43.610;1.440;2023-06-26T03:07:35;22.50;1.00
35635;DHT22;21757;43.610;1.440;2023-06-26T03:10:00;22.50;1.00
35635;DHT22;21757;43.610;1.440;2023-06-26T03:12:26;22.50;1.00
35635;DHT22;21757;43.610;1.440;2023-06-26T03:14:52;22.40;1.00
35635;DHT22;21757;43.610;1.440;2023-06-26T03:17:17;22.40;1.00
35635;DHT22;21757;43.610;1.440;2023-06-26T03:19:43;22.40;1.00
35635;DHT22;21757;43.610;1.440;2023-06-26T03:22:10;22.40;1.00
35635;DHT22;21757;43.610;1.440;2023-06-26T03:24:35;22.50;1.00
35635;DHT22;21757;43.610;1.440;2023-06-26T03:27:01;22.40;1.00
35635;DHT22;21757;43.610;1.440;2023-06-26T03:29:26;22.40;1.00
35635;DHT22;21757;43.610;1.440;2023-06-26T03:31:52;22.40;1.00
35635;DHT22;21757;43.610;1.440;2023-06-26T03:34:18;22.50;1.00
35635;DHT22;21757;43.610;1.440;2023-06-26T03:36:43;22.40;1.00
35635;DHT22;21757;43.610;1.440;2023-06-26T03:39:09;22.50;1.00
35635;DHT22;21757;43.610;1.440;2023-06-26T03:41:34;22.50;1.00
35635;DHT22;21757;43.610;1.440;2023-06-26T03:44:00;22.40;1.00
35635;DHT22;21757;43.610;1.440;2023-06-26T03:46:27;22.50;1.00
35635;DHT22;21757;43.610;1.440;2023-06-26T03:48:52;22.30;1.00
35635;DHT22;21757;43.610;1.440;2023-06-26T03:51:18;22.30;1.00
35635;DHT22;21757;43.610;1.440;2023-06-26T03:53:44;22.30;1.00
35635;DHT22;21757;43.610;1.440;2023-06-26T03:56:09;22.20;1.00
35635;DHT22;21757;43.610;1.440;2023-06-26T03:58:35;22.20;1.00
35635;DHT22;21757;43.610;1.440;2023-06-26T04:01:01;22.30;1.00
35635;DHT22;21757;43.610;1.440;2023-06-26T04:03:26;22.20;1.00
35635;DHT22;21757;43.610;1.440;2023-06-26T04:05:52;22.20;1.00
35635;DHT22;21757;43.610;1.440;2023-06-26T04:08:18;22.20;1.00
35635;DHT22;21757;43.610;1.440;2023-06-26T04:10:45;22.10;1.00
35635;DHT22;21757;43.610;1.440;2023-06-26T04:13:11;22.20;1.00
35635;DHT22;21757;43.610;1.440;2023-06-26T04:15:36;22.10;1.00
35635;DHT22;21757;43.610;1.440;2023-06-26T04:18:02;22.10;1.00
35635;DHT22;21757;43.610;1.440;2023-06-26T04:20:28;22.20;1.00
35635;DHT22;21757;43.610;1.440;2023-06-26T04:22:54;22.20;1.00
35635;DHT22;21757;43.610;1.440;2023-06-26T04:25:19;22.20;1.00
35635;DHT22;21757;43.610;1.440;2023-06-26T04:27:45;22.20;1.00
35635;DHT22;21757;43.610;1.440;2023-06-26T04:30:11;22.20;1.00
35635;DHT22;21757;43.610;1.440;2023-06-26T04:32:37;22.20;1.00
35635;DHT22;21757;43.610;1.440;2023-06-26T04:35:03;22.20;1.00
35635;DHT22;21757;43.610;1.440;2023-06-26T04:37:29;22.10;1.00
35635;DHT22;21757;43.610;1.440;2023-06-26T04:39:55;22.10;1.00
35635;DHT22;21757;43.610;1.440;2023-06-26T04:42:20;22.10;1.00
35635;DHT22;21757;43.610;1.440;2023-06-26T04:44:47;22.00;1.00
35635;DHT22;21757;43.610;1.440;2023-06-26T04:47:13;22.00;1.00
35635;DHT22;21757;43.610;1.440;2023-06-26T04:49:40;22.10;1.00
35635;DHT22;21757;43.610;1.440;2023-06-26T04:52:11;22.20;1.00
35635;DHT22;21757;43.610;1.440;2023-06-26T04:54:39;22.10;1.00
35635;DHT22;21757;43.610;1.440;2023-06-26T04:57:05;22.10;1.00
35635;DHT22;21757;43.610;1.440;2023-06-26T04:59:31;22.10;1.00
35635;DHT22;21757;43.610;1.440;2023-06-26T05:01:57;22.00;1.00
35635;DHT22;21757;43.610;1.440;2023-06-26T05:04:22;21.80;1.00
35635;DHT22;21757;43.610;1.440;2023-06-26T05:06:48;21.80;1.00
35635;DHT22;21757;43.610;1.440;2023-06-26T05:09:14;21.80;1.00
35635;DHT22;21757;43.610;1.440;2023-06-26T05:11:40;21.80;1.00
35635;DHT22;21757;43.610;1.440;2023-06-26T05:14:06;21.80;1.00
35635;DHT22;21757;43.610;1.440;2023-06-26T05:16:35;21.70;1.00
35635;DHT22;21757;43.610;1.440;2023-06-26T05:19:01;21.80;1.00
35635;DHT22;21757;43.610;1.440;2023-06-26T05:21:27;21.50;1.00
35635;DHT22;21757;43.610;1.440;2023-06-26T05:23:56;21.40;1.00
35635;DHT22;21757;43.610;1.440;2023-06-26T05:26:22;21.50;1.00
35635;DHT22;21757;43.610;1.440;2023-06-26T05:28:48;21.50;1.00
35635;DHT22;21757;43.610;1.440;2023-06-26T05:31:17;21.50;1.00
35635;DHT22;21757;43.610;1.440;2023-06-26T05:33:44;21.50;1.00
35635;DHT22;21757;43.610;1.440;2023-06-26T05:36:10;21.50;1.00
35635;DHT22;21757;43.610;1.440;2023-06-26T05:38:38;21.50;1.00
35635;DHT22;21757;43.610;1.440;2023-06-26T05:41:03;21.70;1.00
35635;DHT22;21757;43.610;1.440;2023-06-26T05:43:29;21.70;1.00
35635;DHT22;21757;43.610;1.440;2023-06-26T05:45:56;21.80;1.00
35635;DHT22;21757;43.610;1.440;2023-06-26T05:48:23;21.70;1.00
35635;DHT22;21757;43.610;1.440;2023-06-26T05:50:49;21.80;1.00
35635;DHT22;21757;43.610;1.440;2023-06-26T05:53:15;21.80;1.00
35635;DHT22;21757;43.610;1.440;2023-06-26T05:55:41;21.70;1.00
35635;DHT22;21757;43.610;1.440;2023-06-26T05:58:10;21.50;1.00
35635;DHT22;21757;43.610;1.440;2023-06-26T06:00:36;21.60;1.00
35635;DHT22;21757;43.610;1.440;2023-06-26T06:03:02;21.50;1.00
35635;DHT22;21757;43.610;1.440;2023-06-26T06:05:28;21.60;1.00
35635;DHT22;21757;43.610;1.440;2023-06-26T06:07:53;21.70;1.00
35635;DHT22;21757;43.610;1.440;2023-06-26T06:10:19;21.70;1.00
35635;DHT22;21757;43.610;1.440;2023-06-26T06:12:45;21.80;1.00
35635;DHT22;21757;43.610;1.440;2023-06-26T06:15:10;21.90;1.00
35635;DHT22;21757;43.610;1.440;2023-06-26T06:17:36;22.00;1.00
35635;DHT22;21757;43.610;1.440;2023-06-26T06:20:03;22.00;1.00
35635;DHT22;21757;43.610;1.440;2023-06-26T06:22:29;22.10;1.00
35635;DHT22;21757;43.610;1.440;2023-06-26T06:24:54;22.10;1.00
35635;DHT22;21757;43.610;1.440;2023-06-26T06:27:20;22.10;1.00
35635;DHT22;21757;43.610;1.440;2023-06-26T06:29:45;22.10;1.00
35635;DHT22;21757;43.610;1.440;2023-06-26T06:32:11;22.10;1.00
35635;DHT22;21757;43.610;1.440;2023-06-26T06:34:37;22.20;1.00
35635;DHT22;21757;43.610;1.440;2023-06-26T06:37:03;22.40;1.00
35635;DHT22;21757;43.610;1.440;2023-06-26T06:39:29;22.50;1.00
35635;DHT22;21757;43.610;1.440;2023-06-26T06:41:55;22.50;1.00
35635;DHT22;21757;43.610;1.440;2023-06-26T06:44:20;22.50;1.00
35635;DHT22;21757;43.610;1.440;2023-06-26T06:46:46;22.60;1.00
35635;DHT22;21757;43.610;1.440;2023-06-26T06:49:12;22.40;1.00
35635;DHT22;21757;43.610;1.440;2023-06-26T06:51:37;22.50;1.00
35635;DHT22;21757;43.610;1.440;2023-06-26T06:54:03;22.50;1.00
35635;DHT22;21757;43.610;1.440;2023-06-26T06:56:29;22.50;1.00
35635;DHT22;21757;43.610;1.440;2023-06-26T06:58:55;22.20;1.00
35635;DHT22;21757;43.610;1.440;2023-06-26T07:01:20;22.30;1.00
35635;DHT22;21757;43.610;1.440;2023-06-26T07:03:46;22.70;1.00
35635;DHT22;21757;43.610;1.440;2023-06-26T07:06:11;22.50;1.00
35635;DHT22;21757;43.610;1.440;2023-06-26T07:08:37;22.60;1.00
35635;DHT22;21757;43.610;1.440;2023-06-26T07:11:03;22.60;1.00
35635;DHT22;21757;43.610;1.440;2023-06-26T07:13:29;22.50;1.00
35635;DHT22;21757;43.610;1.440;2023-06-26T07:15:55;22.50;1.00
35635;DHT22;21757;43.610;1.440;2023-06-26T07:18:20;22.50;1.00
35635;DHT22;21757;43.610;1.440;2023-06-26T07:20:46;22.60;1.00
35635;DHT22;21757;43.610;1.440;2023-06-26T07:23:12;22.70;1.00
35635;DHT22;21757;43.610;1.440;2023-06-26T07:25:37;22.30;1.00
35635;DHT22;21757;43.610;1.440;2023-06-26T07:28:03;22.30;1.00
35635;DHT22;21757;43.610;1.440;2023-06-26T07:30:29;22.40;1.00
35635;DHT22;21757;43.610;1.440;2023-06-26T07:32:54;22.50;1.00
35635;DHT22;21757;43.610;1.440;2023-06-26T07:35:20;22.70;1.00
35635;DHT22;21757;43.610;1.440;2023-06-26T07:37:45;22.80;1.00
35635;DHT22;21757;43.610;1.440;2023-06-26T07:40:11;22.90;1.00
35635;DHT22;21757;43.610;1.440;2023-06-26T07:42:37;22.70;1.00
35635;DHT22;21757;43.610;1.440;2023-06-26T07:45:03;22.80;1.00
35635;DHT22;21757;43.610;1.440;2023-06-26T07:47:36;23.00;1.00
35635;DHT22;21757;43.610;1.440;2023-06-26T07:50:01;23.00;1.00
35635;DHT22;21757;43.610;1.440;2023-06-26T07:52:27;23.00;1.00
35635;DHT22;21757;43.610;1.440;2023-06-26T07:54:53;23.20;1.00
35635;DHT22;21757;43.610;1.440;2023-06-26T07:57:18;23.20;1.00
35635;DHT22;21757;43.610;1.440;2023-06-26T07:59:44;23.70;1.00
35635;DHT22;21757;43.610;1.440;2023-06-26T08:02:09;24.00;1.00
35635;DHT22;21757;43.610;1.440;2023-06-26T08:04:35;23.90;1.00
35635;DHT22;21757;43.610;1.440;2023-06-26T08:07:01;23.70;1.00
35635;DHT22;21757;43.610;1.440;2023-06-26T08:09:29;23.70;1.00
35635;DHT22;21757;43.610;1.440;2023-06-26T08:11:56;23.70;1.00
35635;DHT22;21757;43.610;1.440;2023-06-26T08:14:22;23.90;1.00
35635;DHT22;21757;43.610;1.440;2023-06-26T08:16:49;24.20;1.00
35635;DHT22;21757;43.610;1.440;2023-06-26T08:19:16;23.90;1.00
35635;DHT22;21757;43.610;1.440;2023-06-26T08:21:42;23.80;1.00
35635;DHT22;21757;43.610;1.440;2023-06-26T08:24:09;23.90;1.00
35635;DHT22;21757;43.610;1.440;2023-06-26T08:26:35;24.10;1.00
35635;DHT22;21757;43.610;1.440;2023-06-26T08:29:01;24.20;1.00
35635;DHT22;21757;43.610;1.440;2023-06-26T08:31:35;24.40;1.00
35635;DHT22;21757;43.610;1.440;2023-06-26T08:34:04;24.50;1.00
35635;DHT22;21757;43.610;1.440;2023-06-26T08:36:30;24.90;1.00
35635;DHT22;21757;43.610;1.440;2023-06-26T08:38:57;24.60;1.00
35635;DHT22;21757;43.610;1.440;2023-06-26T08:41:23;24.30;1.00
35635;DHT22;21757;43.610;1.440;2023-06-26T08:43:48;24.10;1.00
35635;DHT22;21757;43.610;1.440;2023-06-26T08:46:16;24.10;1.00
35635;DHT22;21757;43.610;1.440;2023-06-26T08:48:48;23.70;1.00
35635;DHT22;21757;43.610;1.440;2023-06-26T08:51:16;24.00;1.00
35635;DHT22;21757;43.610;1.440;2023-06-26T08:56:08;24.30;1.00
35635;DHT22;21757;43.610;1.440;2023-06-26T08:58:36;24.70;1.00
35635;DHT22;21757;43.610;1.440;2023-06-26T09:01:04;24.50;1.00
35635;DHT22;21757;43.610;1.440;2023-06-26T09:03:31;24.70;1.00
35635;DHT22;21757;43.610;1.440;2023-06-26T09:05:57;25.00;1.00
35635;DHT22;21757;43.610;1.440;2023-06-26T09:08:23;25.10;1.00
35635;DHT22;21757;43.610;1.440;2023-06-26T09:10:49;25.20;1.00
35635;DHT22;21757;43.610;1.440;2023-06-26T09:13:15;25.30;1.00
35635;DHT22;21757;43.610;1.440;2023-06-26T09:15:45;24.80;1.00
35635;DHT22;21757;43.610;1.440;2023-06-26T09:18:12;24.80;1.00
35635;DHT22;21757;43.610;1.440;2023-06-26T09:20:37;24.70;1.00
35635;DHT22;21757;43.610;1.440;2023-06-26T09:23:03;24.80;1.00
35635;DHT22;21757;43.610;1.440;2023-06-26T09:25:29;25.20;1.00
35635;DHT22;21757;43.610;1.440;2023-06-26T09:27:56;25.20;1.00
35635;DHT22;21757;43.610;1.440;2023-06-26T09:30:22;25.40;1.00
35635;DHT22;21757;43.610;1.440;2023-06-26T09:32:48;25.60;1.00
35635;DHT22;21757;43.610;1.440;2023-06-26T09:35:16;25.10;1.00
35635;DHT22;21757;43.610;1.440;2023-06-26T09:37:42;25.10;1.00
35635;DHT22;21757;43.610;1.440;2023-06-26T09:40:09;24.50;1.00
35635;DHT22;21757;43.610;1.440;2023-06-26T09:42:35;24.50;1.00
35635;DHT22;21757;43.610;1.440;2023-06-26T09:45:01;24.50;1.00
35635;DHT22;21757;43.610;1.440;2023-06-26T09:47:30;24.70;1.00
35635;DHT22;21757;43.610;1.440;2023-06-26T09:49:57;24.80;1.00
35635;DHT22;21757;43.610;1.440;2023-06-26T09:52:26;24.70;1.00
35635;DHT22;21757;43.610;1.440;2023-06-26T09:55:07;24.70;1.00
35635;DHT22;21757;43.610;1.440;2023-06-26T09:57:34;24.70;1.00
35635;DHT22;21757;43.610;1.440;2023-06-26T10:00:02;25.10;1.00
35635;DHT22;21757;43.610;1.440;2023-06-26T10:02:28;24.70;1.00
35635;DHT22;21757;43.610;1.440;2023-06-26T10:04:54;24.70;1.00
35635;DHT22;21757;43.610;1.440;2023-06-26T10:07:20;24.80;1.00
35635;DHT22;21757;43.610;1.440;2023-06-26T10:09:48;24.60;1.00
35635;DHT22;21757;43.610;1.440;2023-06-26T10:12:19;24.70;1.00
35635;DHT22;21757;43.610;1.440;2023-06-26T10:14:45;24.40;1.00
35635;DHT22;21757;43.610;1.440;2023-06-26T10:17:12;24.40;1.00
35635;DHT22;21757;43.610;1.440;2023-06-26T10:19:43;24.30;1.00
35635;DHT22;21757;43.610;1.440;2023-06-26T10:22:12;24.30;1.00
35635;DHT22;21757;43.610;1.440;2023-06-26T10:24:40;24.30;1.00
35635;DHT22;21757;43.610;1.440;2023-06-26T10:27:20;24.30;1.00
35635;DHT22;21757;43.610;1.440;2023-06-26T10:29:55;24.30;1.00
35635;DHT22;21757;43.610;1.440;2023-06-26T10:32:24;24.00;1.00
35635;DHT22;21757;43.610;1.440;2023-06-26T10:34:51;23.60;1.00
35635;DHT22;21757;43.610;1.440;2023-06-26T10:37:17;23.30;1.00
35635;DHT22;21757;43.610;1.440;2023-06-26T10:42:17;23.10;1.00
35635;DHT22;21757;43.610;1.440;2023-06-26T10:44:45;22.90;1.00
35635;DHT22;21757;43.610;1.440;2023-06-26T10:47:29;23.30;1.00
35635;DHT22;21757;43.610;1.440;2023-06-26T10:52:43;23.50;1.00
35635;DHT22;21757;43.610;1.440;2023-06-26T10:55:09;23.50;1.00
35635;DHT22;21757;43.610;1.440;2023-06-26T10:57:36;23.60;1.00
35635;DHT22;21757;43.610;1.440;2023-06-26T11:00:09;23.50;1.00
35635;DHT22;21757;43.610;1.440;2023-06-26T11:02:52;23.50;1.00
35635;DHT22;21757;43.610;1.440;2023-06-26T11:05:29;23.30;1.00
35635;DHT22;21757;43.610;1.440;2023-06-26T11:08:07;23.40;1.00
35635;DHT22;21757;43.610;1.440;2023-06-26T11:10:53;23.70;1.00
35635;DHT22;21757;43.610;1.440;2023-06-26T11:13:19;23.70;1.00
35635;DHT22;21757;43.610;1.440;2023-06-26T11:15:50;23.70;1.00
35635;DHT22;21757;43.610;1.440;2023-06-26T11:18:16;23.70;1.00
35635;DHT22;21757;43.610;1.440;2023-06-26T11:20:42;23.90;1.00
35635;DHT22;21757;43.610;1.440;2023-06-26T11:23:08;24.00;1.00
35635;DHT22;21757;43.610;1.440;2023-06-26T11:25:38;23.80;1.00
35635;DHT22;21757;43.610;1.440;2023-06-26T11:28:05;24.10;1.00
35635;DHT22;21757;43.610;1.440;2023-06-26T11:30:31;24.70;1.00
35635;DHT22;21757;43.610;1.440;2023-06-26T11:33:09;24.90;1.00
35635;DHT22;21757;43.610;1.440;2023-06-26T11:35:35;25.00;1.00
35635;DHT22;21757;43.610;1.440;2023-06-26T11:38:03;25.40;1.00
35635;DHT22;21757;43.610;1.440;2023-06-26T11:40:36;25.40;1.00
35635;DHT22;21757;43.610;1.440;2023-06-26T11:43:02;25.50;1.00
35635;DHT22;21757;43.610;1.440;2023-06-26T11:45:31;25.50;1.00
35635;DHT22;21757;43.610;1.440;2023-06-26T11:47:58;25.90;1.00
35635;DHT22;21757;43.610;1.440;2023-06-26T11:50:25;25.90;1.00
35635;DHT22;21757;43.610;1.440;2023-06-26T11:52:57;25.70;1.00
35635;DHT22;21757;43.610;1.440;2023-06-26T11:55:23;26.00;1.00
35635;DHT22;21757;43.610;1.440;2023-06-26T11:57:54;26.40;1.00
35635;DHT22;21757;43.610;1.440;2023-06-26T12:00:20;26.70;1.00
35635;DHT22;21757;43.610;1.440;2023-06-26T12:02:46;26.50;1.00
35635;DHT22;21757;43.610;1.440;2023-06-26T12:05:13;26.50;1.00
35635;DHT22;21757;43.610;1.440;2023-06-26T12:07:41;26.70;1.00
35635;DHT22;21757;43.610;1.440;2023-06-26T12:10:09;26.90;1.00
35635;DHT22;21757;43.610;1.440;2023-06-26T12:12:36;26.80;1.00
35635;DHT22;21757;43.610;1.440;2023-06-26T12:15:02;26.80;1.00
35635;DHT22;21757;43.610;1.440;2023-06-26T12:17:28;27.00;1.00
35635;DHT22;21757;43.610;1.440;2023-06-26T12:19:54;27.10;1.00
35635;DHT22;21757;43.610;1.440;2023-06-26T12:22:19;26.90;1.00
35635;DHT22;21757;43.610;1.440;2023-06-26T12:24:46;26.70;1.00
35635;DHT22;21757;43.610;1.440;2023-06-26T12:27:13;27.10;1.00
35635;DHT22;21757;43.610;1.440;2023-06-26T12:29:45;27.50;1.00
35635;DHT22;21757;43.610;1.440;2023-06-26T12:32:12;27.00;1.00
35635;DHT22;21757;43.610;1.440;2023-06-26T12:34:40;27.10;1.00
35635;DHT22;21757;43.610;1.440;2023-06-26T12:37:08;27.20;1.00
35635;DHT22;21757;43.610;1.440;2023-06-26T12:39:49;27.40;1.00
35635;DHT22;21757;43.610;1.440;2023-06-26T12:42:19;27.10;1.00
35635;DHT22;21757;43.610;1.440;2023-06-26T12:44:45;27.30;1.00
35635;DHT22;21757;43.610;1.440;2023-06-26T12:47:12;27.50;1.00
35635;DHT22;21757;43.610;1.440;2023-06-26T12:49:41;28.00;1.00
35635;DHT22;21757;43.610;1.440;2023-06-26T12:52:17;28.20;1.00
35635;DHT22;21757;43.610;1.440;2023-06-26T12:54:46;28.10;1.00
35635;DHT22;21757;43.610;1.440;2023-06-26T12:57:16;28.30;1.00
35635;DHT22;21757;43.610;1.440;2023-06-26T12:59:42;28.50;1.00
35635;DHT22;21757;43.610;1.440;2023-06-26T13:02:09;28.40;1.00
35635;DHT22;21757;43.610;1.440;2023-06-26T13:04:37;28.60;1.00
35635;DHT22;21757;43.610;1.440;2023-06-26T13:07:08;28.70;1.00
35635;DHT22;21757;43.610;1.440;2023-06-26T13:09:34;27.70;1.00
35635;DHT22;21757;43.610;1.440;2023-06-26T13:12:01;28.10;1.00
35635;DHT22;21757;43.610;1.440;2023-06-26T13:14:27;28.50;1.00
35635;DHT22;21757;43.610;1.440;2023-06-26T13:16:53;28.00;1.00
35635;DHT22;21757;43.610;1.440;2023-06-26T13:19:19;28.10;1.00
35635;DHT22;21757;43.610;1.440;2023-06-26T13:21:45;28.20;1.00
35635;DHT22;21757;43.610;1.440;2023-06-26T13:24:10;28.00;1.00
35635;DHT22;21757;43.610;1.440;2023-06-26T13:26:37;27.90;1.00
35635;DHT22;21757;43.610;1.440;2023-06-26T13:29:03;27.80;1.00
35635;DHT22;21757;43.610;1.440;2023-06-26T13:31:28;28.40;1.00
35635;DHT22;21757;43.610;1.440;2023-06-26T13:33:57;27.90;1.00
35635;DHT22;21757;43.610;1.440;2023-06-26T13:36:23;28.80;1.00
35635;DHT22;21757;43.610;1.440;2023-06-26T13:38:50;29.00;1.00
35635;DHT22;21757;43.610;1.440;2023-06-26T13:41:22;28.60;1.00
35635;DHT22;21757;43.610;1.440;2023-06-26T13:43:47;28.90;1.00
35635;DHT22;21757;43.610;1.440;2023-06-26T13:46:13;29.00;1.00
35635;DHT22;21757;43.610;1.440;2023-06-26T13:48:39;28.20;1.00
35635;DHT22;21757;43.610;1.440;2023-06-26T13:51:04;28.50;1.00
35635;DHT22;21757;43.610;1.440;2023-06-26T13:53:30;28.00;1.00
35635;DHT22;21757;43.610;1.440;2023-06-26T13:55:55;27.90;1.00
35635;DHT22;21757;43.610;1.440;2023-06-26T13:58:21;28.30;1.00
35635;DHT22;21757;43.610;1.440;2023-06-26T14:00:48;29.00;1.00
35635;DHT22;21757;43.610;1.440;2023-06-26T14:03:14;29.00;1.00
35635;DHT22;21757;43.610;1.440;2023-06-26T14:05:39;28.60;1.00
35635;DHT22;21757;43.610;1.440;2023-06-26T14:08:07;28.20;1.00
35635;DHT22;21757;43.610;1.440;2023-06-26T14:10:33;28.10;1.00
35635;DHT22;21757;43.610;1.440;2023-06-26T14:13:02;28.60;1.00
35635;DHT22;21757;43.610;1.440;2023-06-26T14:15:29;28.00;1.00
35635;DHT22;21757;43.610;1.440;2023-06-26T14:17:54;28.20;1.00
35635;DHT22;21757;43.610;1.440;2023-06-26T14:20:22;28.50;1.00
35635;DHT22;21757;43.610;1.440;2023-06-26T14:22:49;28.50;1.00
35635;DHT22;21757;43.610;1.440;2023-06-26T14:25:15;28.80;1.00
35635;DHT22;21757;43.610;1.440;2023-06-26T14:27:41;28.50;1.00
35635;DHT22;21757;43.610;1.440;2023-06-26T14:30:08;28.60;1.00
35635;DHT22;21757;43.610;1.440;2023-06-26T14:32:34;28.20;1.00
35635;DHT22;21757;43.610;1.440;2023-06-26T14:35:00;28.20;1.00
35635;DHT22;21757;43.610;1.440;2023-06-26T14:37:28;28.00;1.00
35635;DHT22;21757;43.610;1.440;2023-06-26T14:39:54;28.30;1.00
35635;DHT22;21757;43.610;1.440;2023-06-26T14:42:20;28.60;1.00
35635;DHT22;21757;43.610;1.440;2023-06-26T14:44:45;28.50;1.00
35635;DHT22;21757;43.610;1.440;2023-06-26T14:47:13;28.70;1.00
35635;DHT22;21757;43.610;1.440;2023-06-26T14:49:40;28.50;1.00
35635;DHT22;21757;43.610;1.440;2023-06-26T14:52:06;28.40;1.00
35635;DHT22;21757;43.610;1.440;2023-06-26T14:54:31;28.70;1.00
35635;DHT22;21757;43.610;1.440;2023-06-26T14:56:59;28.30;1.00
35635;DHT22;21757;43.610;1.440;2023-06-26T14:59:25;28.30;1.00
35635;DHT22;21757;43.610;1.440;2023-06-26T15:01:51;28.50;1.00
35635;DHT22;21757;43.610;1.440;2023-06-26T15:04:16;28.60;1.00
35635;DHT22;21757;43.610;1.440;2023-06-26T15:06:42;28.60;1.00
35635;DHT22;21757;43.610;1.440;2023-06-26T15:09:08;28.30;1.00
35635;DHT22;21757;43.610;1.440;2023-06-26T15:11:34;27.40;1.00
35635;DHT22;21757;43.610;1.440;2023-06-26T15:14:01;28.00;1.00
35635;DHT22;21757;43.610;1.440;2023-06-26T15:16:27;28.50;1.00
35635;DHT22;21757;43.610;1.440;2023-06-26T15:18:53;28.50;1.00
35635;DHT22;21757;43.610;1.440;2023-06-26T15:21:18;28.80;1.00
35635;DHT22;21757;43.610;1.440;2023-06-26T15:23:49;29.00;1.00
35635;DHT22;21757;43.610;1.440;2023-06-26T15:26:15;29.00;1.00
35635;DHT22;21757;43.610;1.440;2023-06-26T15:28:41;28.70;1.00
35635;DHT22;21757;43.610;1.440;2023-06-26T15:31:06;28.80;1.00
35635;DHT22;21757;43.610;1.440;2023-06-26T15:33:32;28.60;1.00
35635;DHT22;21757;43.610;1.440;2023-06-26T15:35:58;28.20;1.00
35635;DHT22;21757;43.610;1.440;2023-06-26T15:38:23;27.90;1.00
35635;DHT22;21757;43.610;1.440;2023-06-26T15:40:49;28.00;1.00
35635;DHT22;21757;43.610;1.440;2023-06-26T15:43:15;28.20;1.00
35635;DHT22;21757;43.610;1.440;2023-06-26T15:45:40;28.10;1.00
35635;DHT22;21757;43.610;1.440;2023-06-26T15:48:06;28.20;1.00
35635;DHT22;21757;43.610;1.440;2023-06-26T15:50:32;28.10;1.00
35635;DHT22;21757;43.610;1.440;2023-06-26T15:52:58;28.20;1.00
35635;DHT22;21757;43.610;1.440;2023-06-26T15:55:24;28.50;1.00
35635;DHT22;21757;43.610;1.440;2023-06-26T15:57:50;28.30;1.00
35635;DHT22;21757;43.610;1.440;2023-06-26T16:00:16;28.40;1.00
35635;DHT22;21757;43.610;1.440;2023-06-26T16:02:42;28.50;1.00